sensor_id;sensor_type;location;lat;lon;timestamp;P1;durP1;ratioP1;P2;durP2;ratioP2
12784;SDS011;6456;42.680;23.260;2022-07-18T00:00:05;15.23;;;7.73;;
12784;SDS011;6456;42.680;23.260;2022-07-18T00:02:34;8.07;;;4.80;;
12784;SDS011;6456;42.680;23.260;2022-07-18T00:05:01;15.37;;;6.60;;
12784;SDS011;6456;42.680;23.260;2022-07-18T00:07:31;15.73;;;7.30;;
12784;SDS011;6456;42.680;23.260;2022-07-18T00:09:58;17.63;;;7.40;;
12784;SDS011;6456;42.680;23.260;2022-07-18T00:12:25;6.90;;;3.73;;
12784;SDS011;6456;42.680;23.260;2022-07-18T00:14:52;4.07;;;2.90;;
12784;SDS011;6456;42.680;23.260;2022-07-18T00:17:19;4.20;;;2.80;;
12784;SDS011;6456;42.680;23.260;2022-07-18T00:19:46;6.27;;;3.17;;
12784;SDS011;6456;42.680;23.260;2022-07-18T00:22:13;3.03;;;2.60;;
12784;SDS011;6456;42.680;23.260;2022-07-18T00:24:41;2.87;;;2.53;;
12784;SDS011;6456;42.680;23.260;2022-07-18T00:27:08;3.57;;;1.83;;
12784;SDS011;6456;42.680;23.260;2022-07-18T00:29:35;3.20;;;1.87;;
12784;SDS011;6456;42.680;23.260;2022-07-18T00:32:02;2.03;;;1.90;;
12784;SDS011;6456;42.680;23.260;2022-07-18T00:34:29;2.03;;;1.40;;
12784;SDS011;6456;42.680;23.260;2022-07-18T00:36:56;2.40;;;1.80;;
12784;SDS011;6456;42.680;23.260;2022-07-18T00:39:23;1.80;;;1.70;;
12784;SDS011;6456;42.680;23.260;2022-07-18T00:41:52;2.60;;;1.80;;
12784;SDS011;6456;42.680;23.260;2022-07-18T00:44:19;3.53;;;1.70;;
12784;SDS011;6456;42.680;23.260;2022-07-18T00:46:48;1.70;;;1.60;;
12784;SDS011;6456;42.680;23.260;2022-07-18T00:49:15;2.57;;;1.60;;
12784;SDS011;6456;42.680;23.260;2022-07-18T00:51:43;1.60;;;1.50;;
12784;SDS011;6456;42.680;23.260;2022-07-18T00:54:10;1.63;;;1.40;;
12784;SDS011;6456;42.680;23.260;2022-07-18T00:56:37;1.90;;;1.60;;
12784;SDS011;6456;42.680;23.260;2022-07-18T00:59:05;1.80;;;1.70;;
12784;SDS011;6456;42.680;23.260;2022-07-18T01:01:32;1.60;;;1.50;;
12784;SDS011;6456;42.680;23.260;2022-07-18T01:04:18;3.30;;;1.73;;
12784;SDS011;6456;42.680;23.260;2022-07-18T01:06:46;1.60;;;1.50;;
12784;SDS011;6456;42.680;23.260;2022-07-18T01:09:13;1.60;;;1.50;;
12784;SDS011;6456;42.680;23.260;2022-07-18T01:11:40;4.67;;;1.70;;
12784;SDS011;6456;42.680;23.260;2022-07-18T01:14:10;3.80;;;1.40;;
12784;SDS011;6456;42.680;23.260;2022-07-18T01:16:37;1.30;;;1.20;;
12784;SDS011;6456;42.680;23.260;2022-07-18T01:19:04;1.87;;;1.57;;
12784;SDS011;6456;42.680;23.260;2022-07-18T01:21:33;1.60;;;1.50;;
12784;SDS011;6456;42.680;23.260;2022-07-18T01:24:01;3.70;;;2.17;;
12784;SDS011;6456;42.680;23.260;2022-07-18T01:26:28;2.73;;;1.80;;
12784;SDS011;6456;42.680;23.260;2022-07-18T01:28:55;2.07;;;1.60;;
12784;SDS011;6456;42.680;23.260;2022-07-18T01:31:22;1.77;;;1.67;;
12784;SDS011;6456;42.680;23.260;2022-07-18T01:33:49;1.70;;;1.57;;
12784;SDS011;6456;42.680;23.260;2022-07-18T01:36:19;1.73;;;1.53;;
12784;SDS011;6456;42.680;23.260;2022-07-18T01:38:47;2.23;;;1.60;;
12784;SDS011;6456;42.680;23.260;2022-07-18T01:41:14;1.60;;;1.50;;
12784;SDS011;6456;42.680;23.260;2022-07-18T01:43:41;3.13;;;1.80;;
12784;SDS011;6456;42.680;23.260;2022-07-18T01:46:08;6.27;;;1.57;;
12784;SDS011;6456;42.680;23.260;2022-07-18T01:48:36;1.87;;;1.37;;
12784;SDS011;6456;42.680;23.260;2022-07-18T01:51:04;1.40;;;1.30;;
12784;SDS011;6456;42.680;23.260;2022-07-18T01:53:35;1.57;;;1.47;;
12784;SDS011;6456;42.680;23.260;2022-07-18T01:56:03;2.07;;;1.37;;
12784;SDS011;6456;42.680;23.260;2022-07-18T01:58:30;1.40;;;1.30;;
12784;SDS011;6456;42.680;23.260;2022-07-18T02:00:57;1.70;;;1.30;;
12784;SDS011;6456;42.680;23.260;2022-07-18T02:03:24;1.47;;;1.30;;
12784;SDS011;6456;42.680;23.260;2022-07-18T02:05:51;1.67;;;1.57;;
12784;SDS011;6456;42.680;23.260;2022-07-18T02:08:18;2.40;;;1.70;;
12784;SDS011;6456;42.680;23.260;2022-07-18T02:10:45;1.60;;;1.50;;
12784;SDS011;6456;42.680;23.260;2022-07-18T02:13:13;1.40;;;1.30;;
12784;SDS011;6456;42.680;23.260;2022-07-18T02:15:42;2.37;;;1.80;;
12784;SDS011;6456;42.680;23.260;2022-07-18T02:18:08;2.40;;;1.67;;
12784;SDS011;6456;42.680;23.260;2022-07-18T02:20:35;2.60;;;1.70;;
12784;SDS011;6456;42.680;23.260;2022-07-18T02:23:03;2.83;;;1.40;;
12784;SDS011;6456;42.680;23.260;2022-07-18T02:25:30;2.67;;;1.63;;
12784;SDS011;6456;42.680;23.260;2022-07-18T02:27:57;6.43;;;1.73;;
12784;SDS011;6456;42.680;23.260;2022-07-18T02:30:25;3.90;;;1.80;;
12784;SDS011;6456;42.680;23.260;2022-07-18T02:32:52;2.27;;;1.70;;
12784;SDS011;6456;42.680;23.260;2022-07-18T02:35:20;1.57;;;1.40;;
12784;SDS011;6456;42.680;23.260;2022-07-18T02:37:47;1.50;;;1.40;;
12784;SDS011;6456;42.680;23.260;2022-07-18T02:40:14;1.60;;;1.27;;
12784;SDS011;6456;42.680;23.260;2022-07-18T02:42:40;2.87;;;1.20;;
12784;SDS011;6456;42.680;23.260;2022-07-18T02:45:08;2.13;;;1.20;;
12784;SDS011;6456;42.680;23.260;2022-07-18T02:47:36;1.97;;;1.20;;
12784;SDS011;6456;42.680;23.260;2022-07-18T02:50:03;1.40;;;1.30;;
12784;SDS011;6456;42.680;23.260;2022-07-18T02:52:31;2.70;;;1.43;;
12784;SDS011;6456;42.680;23.260;2022-07-18T02:54:58;3.43;;;1.67;;
12784;SDS011;6456;42.680;23.260;2022-07-18T02:57:25;3.90;;;1.63;;
12784;SDS011;6456;42.680;23.260;2022-07-18T02:59:52;2.27;;;1.50;;
12784;SDS011;6456;42.680;23.260;2022-07-18T03:02:19;1.70;;;1.57;;
12784;SDS011;6456;42.680;23.260;2022-07-18T03:04:48;1.40;;;1.30;;
12784;SDS011;6456;42.680;23.260;2022-07-18T03:07:14;2.13;;;1.73;;
12784;SDS011;6456;42.680;23.260;2022-07-18T03:09:41;1.40;;;1.30;;
12784;SDS011;6456;42.680;23.260;2022-07-18T03:12:08;2.90;;;1.33;;
12784;SDS011;6456;42.680;23.260;2022-07-18T03:14:35;1.33;;;1.23;;
12784;SDS011;6456;42.680;23.260;2022-07-18T03:17:02;1.60;;;1.30;;
12784;SDS011;6456;42.680;23.260;2022-07-18T03:19:29;2.57;;;1.50;;
12784;SDS011;6456;42.680;23.260;2022-07-18T03:21:57;2.53;;;1.40;;
12784;SDS011;6456;42.680;23.260;2022-07-18T03:24:24;6.93;;;1.87;;
12784;SDS011;6456;42.680;23.260;2022-07-18T03:26:51;3.97;;;1.53;;
12784;SDS011;6456;42.680;23.260;2022-07-18T03:29:18;2.40;;;1.30;;
12784;SDS011;6456;42.680;23.260;2022-07-18T03:31:45;3.10;;;1.23;;
12784;SDS011;6456;42.680;23.260;2022-07-18T03:34:12;1.53;;;1.20;;
12784;SDS011;6456;42.680;23.260;2022-07-18T03:36:39;3.03;;;1.37;;
12784;SDS011;6456;42.680;23.260;2022-07-18T03:39:09;6.53;;;1.47;;
12784;SDS011;6456;42.680;23.260;2022-07-18T03:41:37;3.13;;;1.43;;
12784;SDS011;6456;42.680;23.260;2022-07-18T03:44:04;2.47;;;1.60;;
12784;SDS011;6456;42.680;23.260;2022-07-18T03:46:32;1.37;;;1.27;;
12784;SDS011;6456;42.680;23.260;2022-07-18T03:48:59;4.53;;;1.70;;
12784;SDS011;6456;42.680;23.260;2022-07-18T03:51:26;4.83;;;1.60;;
12784;SDS011;6456;42.680;23.260;2022-07-18T03:53:53;2.30;;;1.50;;
12784;SDS011;6456;42.680;23.260;2022-07-18T03:56:22;1.87;;;1.50;;
12784;SDS011;6456;42.680;23.260;2022-07-18T03:58:49;2.47;;;1.60;;
12784;SDS011;6456;42.680;23.260;2022-07-18T04:01:15;3.00;;;1.40;;
12784;SDS011;6456;42.680;23.260;2022-07-18T04:03:42;1.90;;;1.20;;
12784;SDS011;6456;42.680;23.260;2022-07-18T04:06:09;3.07;;;1.70;;
12784;SDS011;6456;42.680;23.260;2022-07-18T04:08:36;4.80;;;2.03;;
12784;SDS011;6456;42.680;23.260;2022-07-18T04:11:03;2.07;;;1.97;;
12784;SDS011;6456;42.680;23.260;2022-07-18T04:13:31;1.93;;;1.50;;
12784;SDS011;6456;42.680;23.260;2022-07-18T04:15:58;1.53;;;1.40;;
12784;SDS011;6456;42.680;23.260;2022-07-18T04:18:25;2.77;;;1.83;;
12784;SDS011;6456;42.680;23.260;2022-07-18T04:20:52;3.10;;;1.40;;
12784;SDS011;6456;42.680;23.260;2022-07-18T04:23:19;1.30;;;1.20;;
12784;SDS011;6456;42.680;23.260;2022-07-18T04:25:46;1.97;;;1.40;;
12784;SDS011;6456;42.680;23.260;2022-07-18T04:28:13;5.03;;;1.60;;
12784;SDS011;6456;42.680;23.260;2022-07-18T04:30:42;2.23;;;1.40;;
12784;SDS011;6456;42.680;23.260;2022-07-18T04:33:10;1.50;;;1.40;;
12784;SDS011;6456;42.680;23.260;2022-07-18T04:35:37;1.30;;;1.10;;
12784;SDS011;6456;42.680;23.260;2022-07-18T04:38:04;3.10;;;1.70;;
12784;SDS011;6456;42.680;23.260;2022-07-18T04:40:32;2.60;;;1.40;;
12784;SDS011;6456;42.680;23.260;2022-07-18T04:42:59;3.10;;;1.40;;
12784;SDS011;6456;42.680;23.260;2022-07-18T04:45:26;2.07;;;1.43;;
12784;SDS011;6456;42.680;23.260;2022-07-18T04:47:59;1.63;;;1.40;;
12784;SDS011;6456;42.680;23.260;2022-07-18T04:50:26;1.43;;;1.10;;
12784;SDS011;6456;42.680;23.260;2022-07-18T04:52:55;1.97;;;1.47;;
12784;SDS011;6456;42.680;23.260;2022-07-18T04:55:22;1.37;;;1.23;;
12784;SDS011;6456;42.680;23.260;2022-07-18T04:57:51;1.20;;;1.10;;
12784;SDS011;6456;42.680;23.260;2022-07-18T05:00:19;1.83;;;1.20;;
12784;SDS011;6456;42.680;23.260;2022-07-18T05:02:47;2.40;;;1.40;;
12784;SDS011;6456;42.680;23.260;2022-07-18T05:05:17;1.27;;;1.17;;
12784;SDS011;6456;42.680;23.260;2022-07-18T05:07:45;1.93;;;1.27;;
12784;SDS011;6456;42.680;23.260;2022-07-18T05:10:14;2.10;;;1.33;;
12784;SDS011;6456;42.680;23.260;2022-07-18T05:12:43;1.17;;;1.00;;
12784;SDS011;6456;42.680;23.260;2022-07-18T05:15:12;2.30;;;1.20;;
12784;SDS011;6456;42.680;23.260;2022-07-18T05:17:40;1.23;;;1.13;;
12784;SDS011;6456;42.680;23.260;2022-07-18T05:20:08;1.20;;;1.17;;
12784;SDS011;6456;42.680;23.260;2022-07-18T05:22:39;1.10;;;1.10;;
12784;SDS011;6456;42.680;23.260;2022-07-18T05:25:09;1.33;;;1.20;;
12784;SDS011;6456;42.680;23.260;2022-07-18T05:27:37;0.93;;;0.83;;
12784;SDS011;6456;42.680;23.260;2022-07-18T05:30:05;2.13;;;1.20;;
12784;SDS011;6456;42.680;23.260;2022-07-18T05:32:33;1.57;;;1.30;;
12784;SDS011;6456;42.680;23.260;2022-07-18T05:35:01;2.63;;;1.40;;
12784;SDS011;6456;42.680;23.260;2022-07-18T05:37:29;1.50;;;1.20;;
12784;SDS011;6456;42.680;23.260;2022-07-18T05:39:57;2.27;;;1.30;;
12784;SDS011;6456;42.680;23.260;2022-07-18T05:42:24;1.60;;;1.40;;
12784;SDS011;6456;42.680;23.260;2022-07-18T05:44:51;1.40;;;1.30;;
12784;SDS011;6456;42.680;23.260;2022-07-18T05:47:17;3.47;;;1.23;;
12784;SDS011;6456;42.680;23.260;2022-07-18T05:49:44;2.40;;;1.33;;
12784;SDS011;6456;42.680;23.260;2022-07-18T05:52:11;3.23;;;1.17;;
12784;SDS011;6456;42.680;23.260;2022-07-18T05:54:38;4.43;;;1.63;;
12784;SDS011;6456;42.680;23.260;2022-07-18T05:57:07;1.40;;;1.30;;
12784;SDS011;6456;42.680;23.260;2022-07-18T05:59:34;1.43;;;1.20;;
12784;SDS011;6456;42.680;23.260;2022-07-18T06:02:01;3.10;;;1.37;;
12784;SDS011;6456;42.680;23.260;2022-07-18T06:04:27;1.40;;;1.30;;
12784;SDS011;6456;42.680;23.260;2022-07-18T06:06:54;2.50;;;1.40;;
12784;SDS011;6456;42.680;23.260;2022-07-18T06:09:21;2.83;;;1.00;;
12784;SDS011;6456;42.680;23.260;2022-07-18T06:11:48;2.87;;;1.00;;
12784;SDS011;6456;42.680;23.260;2022-07-18T06:14:17;3.30;;;1.93;;
12784;SDS011;6456;42.680;23.260;2022-07-18T06:16:44;4.37;;;1.57;;
12784;SDS011;6456;42.680;23.260;2022-07-18T06:19:11;2.50;;;1.20;;
12784;SDS011;6456;42.680;23.260;2022-07-18T06:21:38;3.07;;;1.30;;
12784;SDS011;6456;42.680;23.260;2022-07-18T06:24:05;13.13;;;2.00;;
12784;SDS011;6456;42.680;23.260;2022-07-18T06:26:32;1.47;;;1.33;;
12784;SDS011;6456;42.680;23.260;2022-07-18T06:28:59;2.73;;;1.40;;
12784;SDS011;6456;42.680;23.260;2022-07-18T06:31:27;1.40;;;1.30;;
12784;SDS011;6456;42.680;23.260;2022-07-18T06:33:54;1.40;;;1.30;;
12784;SDS011;6456;42.680;23.260;2022-07-18T06:36:21;1.40;;;1.30;;
12784;SDS011;6456;42.680;23.260;2022-07-18T06:38:49;2.03;;;1.10;;
12784;SDS011;6456;42.680;23.260;2022-07-18T06:41:16;1.87;;;1.10;;
12784;SDS011;6456;42.680;23.260;2022-07-18T06:43:43;1.90;;;1.30;;
12784;SDS011;6456;42.680;23.260;2022-07-18T06:46:10;2.87;;;1.40;;
12784;SDS011;6456;42.680;23.260;2022-07-18T06:48:39;1.23;;;1.13;;
12784;SDS011;6456;42.680;23.260;2022-07-18T06:51:05;3.30;;;1.50;;
12784;SDS011;6456;42.680;23.260;2022-07-18T06:53:33;2.27;;;1.20;;
12784;SDS011;6456;42.680;23.260;2022-07-18T06:56:01;1.60;;;1.30;;
12784;SDS011;6456;42.680;23.260;2022-07-18T06:58:28;1.87;;;1.30;;
12784;SDS011;6456;42.680;23.260;2022-07-18T07:00:56;1.40;;;1.03;;
12784;SDS011;6456;42.680;23.260;2022-07-18T07:03:24;1.00;;;0.90;;
12784;SDS011;6456;42.680;23.260;2022-07-18T07:05:52;3.60;;;1.30;;
12784;SDS011;6456;42.680;23.260;2022-07-18T07:08:19;2.30;;;0.90;;
12784;SDS011;6456;42.680;23.260;2022-07-18T07:10:46;1.97;;;1.77;;
12784;SDS011;6456;42.680;23.260;2022-07-18T07:13:13;1.73;;;1.23;;
12784;SDS011;6456;42.680;23.260;2022-07-18T07:15:39;1.60;;;1.10;;
12784;SDS011;6456;42.680;23.260;2022-07-18T07:18:08;1.10;;;1.10;;
12784;SDS011;6456;42.680;23.260;2022-07-18T07:20:35;2.40;;;1.20;;
12784;SDS011;6456;42.680;23.260;2022-07-18T07:23:03;1.53;;;1.20;;
12784;SDS011;6456;42.680;23.260;2022-07-18T07:25:32;1.10;;;1.00;;
12784;SDS011;6456;42.680;23.260;2022-07-18T07:27:59;1.20;;;1.10;;
12784;SDS011;6456;42.680;23.260;2022-07-18T07:30:26;2.00;;;1.00;;
12784;SDS011;6456;42.680;23.260;2022-07-18T07:32:53;1.10;;;1.00;;
12784;SDS011;6456;42.680;23.260;2022-07-18T07:35:21;1.33;;;1.10;;
12784;SDS011;6456;42.680;23.260;2022-07-18T07:37:49;1.53;;;1.10;;
12784;SDS011;6456;42.680;23.260;2022-07-18T07:40:18;0.90;;;0.90;;
12784;SDS011;6456;42.680;23.260;2022-07-18T07:42:45;3.00;;;1.10;;
12784;SDS011;6456;42.680;23.260;2022-07-18T07:45:13;1.63;;;1.00;;
12784;SDS011;6456;42.680;23.260;2022-07-18T07:47:41;1.30;;;1.13;;
12784;SDS011;6456;42.680;23.260;2022-07-18T07:50:08;4.30;;;1.00;;
12784;SDS011;6456;42.680;23.260;2022-07-18T07:52:36;1.30;;;1.20;;
12784;SDS011;6456;42.680;23.260;2022-07-18T07:55:04;2.97;;;1.30;;
12784;SDS011;6456;42.680;23.260;2022-07-18T07:57:33;3.07;;;1.10;;
12784;SDS011;6456;42.680;23.260;2022-07-18T08:00:03;1.30;;;1.20;;
12784;SDS011;6456;42.680;23.260;2022-07-18T08:02:31;2.47;;;1.13;;
12784;SDS011;6456;42.680;23.260;2022-07-18T08:04:59;3.07;;;1.00;;
12784;SDS011;6456;42.680;23.260;2022-07-18T08:07:25;0.93;;;0.93;;
12784;SDS011;6456;42.680;23.260;2022-07-18T08:09:52;1.50;;;1.00;;
12784;SDS011;6456;42.680;23.260;2022-07-18T08:12:19;2.40;;;1.30;;
12784;SDS011;6456;42.680;23.260;2022-07-18T08:14:47;1.27;;;1.07;;
12784;SDS011;6456;42.680;23.260;2022-07-18T08:17:16;1.13;;;1.00;;
12784;SDS011;6456;42.680;23.260;2022-07-18T08:19:43;3.23;;;1.27;;
12784;SDS011;6456;42.680;23.260;2022-07-18T08:22:10;1.93;;;1.17;;
12784;SDS011;6456;42.680;23.260;2022-07-18T08:24:37;1.10;;;1.00;;
12784;SDS011;6456;42.680;23.260;2022-07-18T08:27:04;2.23;;;1.30;;
12784;SDS011;6456;42.680;23.260;2022-07-18T08:29:31;3.63;;;1.30;;
12784;SDS011;6456;42.680;23.260;2022-07-18T08:31:59;1.98;;;1.10;;
12784;SDS011;6456;42.680;23.260;2022-07-18T08:34:26;3.33;;;1.25;;
12784;SDS011;6456;42.680;23.260;2022-07-18T08:36:53;5.23;;;1.17;;
12784;SDS011;6456;42.680;23.260;2022-07-18T08:39:20;1.27;;;1.20;;
12784;SDS011;6456;42.680;23.260;2022-07-18T08:41:46;2.33;;;1.20;;
12784;SDS011;6456;42.680;23.260;2022-07-18T08:44:16;1.13;;;1.10;;
12784;SDS011;6456;42.680;23.260;2022-07-18T08:46:46;1.53;;;1.20;;
12784;SDS011;6456;42.680;23.260;2022-07-18T08:49:17;3.00;;;1.10;;
12784;SDS011;6456;42.680;23.260;2022-07-18T08:51:44;1.20;;;1.10;;
12784;SDS011;6456;42.680;23.260;2022-07-18T08:54:11;2.60;;;1.03;;
12784;SDS011;6456;42.680;23.260;2022-07-18T08:56:39;1.10;;;1.00;;
12784;SDS011;6456;42.680;23.260;2022-07-18T08:59:06;1.88;;;1.30;;
12784;SDS011;6456;42.680;23.260;2022-07-18T09:01:33;2.47;;;1.30;;
12784;SDS011;6456;42.680;23.260;2022-07-18T09:04:00;1.63;;;1.17;;
12784;SDS011;6456;42.680;23.260;2022-07-18T09:06:46;1.63;;;1.33;;
12784;SDS011;6456;42.680;23.260;2022-07-18T09:09:15;2.17;;;1.20;;
12784;SDS011;6456;42.680;23.260;2022-07-18T09:11:50;1.77;;;1.30;;
12784;SDS011;6456;42.680;23.260;2022-07-18T09:17:05;1.67;;;1.55;;
12784;SDS011;6456;42.680;23.260;2022-07-18T09:19:33;1.60;;;1.50;;
12784;SDS011;6456;42.680;23.260;2022-07-18T09:24:49;9.30;;;2.40;;
12784;SDS011;6456;42.680;23.260;2022-07-18T09:27:28;10.30;;;2.35;;
12784;SDS011;6456;42.680;23.260;2022-07-18T09:32:52;3.10;;;1.48;;
12784;SDS011;6456;42.680;23.260;2022-07-18T09:35:22;5.15;;;1.85;;
12784;SDS011;6456;42.680;23.260;2022-07-18T09:37:54;2.67;;;1.33;;
12784;SDS011;6456;42.680;23.260;2022-07-18T09:40:25;3.83;;;1.40;;
12784;SDS011;6456;42.680;23.260;2022-07-18T09:42:55;5.18;;;1.30;;
12784;SDS011;6456;42.680;23.260;2022-07-18T09:45:24;4.20;;;2.22;;
12784;SDS011;6456;42.680;23.260;2022-07-18T09:47:53;1.60;;;1.45;;
12784;SDS011;6456;42.680;23.260;2022-07-18T09:50:25;1.55;;;1.45;;
12784;SDS011;6456;42.680;23.260;2022-07-18T09:53:03;1.80;;;1.52;;
12784;SDS011;6456;42.680;23.260;2022-07-18T09:55:31;3.80;;;1.60;;
12784;SDS011;6456;42.680;23.260;2022-07-18T09:58:00;3.63;;;1.52;;
12784;SDS011;6456;42.680;23.260;2022-07-18T10:00:30;1.30;;;1.20;;
12784;SDS011;6456;42.680;23.260;2022-07-18T10:02:58;2.10;;;1.20;;
12784;SDS011;6456;42.680;23.260;2022-07-18T10:05:26;7.57;;;1.83;;
12784;SDS011;6456;42.680;23.260;2022-07-18T10:07:54;2.75;;;1.48;;
12784;SDS011;6456;42.680;23.260;2022-07-18T10:10:24;2.30;;;1.60;;
12784;SDS011;6456;42.680;23.260;2022-07-18T10:12:52;1.83;;;1.65;;
12784;SDS011;6456;42.680;23.260;2022-07-18T10:15:21;1.50;;;1.40;;
12784;SDS011;6456;42.680;23.260;2022-07-18T10:17:49;3.63;;;2.10;;
12784;SDS011;6456;42.680;23.260;2022-07-18T10:20:16;3.53;;;1.55;;
12784;SDS011;6456;42.680;23.260;2022-07-18T10:22:44;2.25;;;1.77;;
12784;SDS011;6456;42.680;23.260;2022-07-18T10:25:13;3.10;;;1.90;;
12784;SDS011;6456;42.680;23.260;2022-07-18T10:27:51;3.67;;;1.70;;
12784;SDS011;6456;42.680;23.260;2022-07-18T10:30:30;2.60;;;1.40;;
12784;SDS011;6456;42.680;23.260;2022-07-18T10:33:00;2.95;;;1.40;;
12784;SDS011;6456;42.680;23.260;2022-07-18T10:38:27;2.55;;;1.67;;
12784;SDS011;6456;42.680;23.260;2022-07-18T10:41:04;2.33;;;1.95;;
12784;SDS011;6456;42.680;23.260;2022-07-18T10:43:34;2.15;;;1.52;;
12784;SDS011;6456;42.680;23.260;2022-07-18T10:46:06;4.18;;;1.88;;
12784;SDS011;6456;42.680;23.260;2022-07-18T10:48:47;2.03;;;1.52;;
12784;SDS011;6456;42.680;23.260;2022-07-18T10:51:15;5.85;;;1.95;;
12784;SDS011;6456;42.680;23.260;2022-07-18T10:53:55;6.60;;;4.65;;
12784;SDS011;6456;42.680;23.260;2022-07-18T10:59:25;3.30;;;2.10;;
12784;SDS011;6456;42.680;23.260;2022-07-18T11:01:54;2.95;;;1.90;;
12784;SDS011;6456;42.680;23.260;2022-07-18T11:04:22;3.90;;;1.98;;
12784;SDS011;6456;42.680;23.260;2022-07-18T11:06:54;2.97;;;1.85;;
12784;SDS011;6456;42.680;23.260;2022-07-18T11:09:28;1.75;;;1.55;;
12784;SDS011;6456;42.680;23.260;2022-07-18T11:12:16;3.25;;;1.77;;
12784;SDS011;6456;42.680;23.260;2022-07-18T11:14:59;1.85;;;1.73;;
12784;SDS011;6456;42.680;23.260;2022-07-18T11:20:26;1.75;;;1.58;;
12784;SDS011;6456;42.680;23.260;2022-07-18T11:23:19;2.40;;;1.67;;
12784;SDS011;6456;42.680;23.260;2022-07-18T11:25:47;2.22;;;1.60;;
12784;SDS011;6456;42.680;23.260;2022-07-18T11:28:16;1.67;;;1.58;;
12784;SDS011;6456;42.680;23.260;2022-07-18T11:30:45;1.60;;;1.50;;
12784;SDS011;6456;42.680;23.260;2022-07-18T11:33:21;2.28;;;1.73;;
12784;SDS011;6456;42.680;23.260;2022-07-18T11:35:50;3.53;;;1.70;;
12784;SDS011;6456;42.680;23.260;2022-07-18T11:38:17;2.05;;;1.70;;
12784;SDS011;6456;42.680;23.260;2022-07-18T11:40:48;5.90;;;2.25;;
12784;SDS011;6456;42.680;23.260;2022-07-18T11:43:19;3.58;;;2.35;;
12784;SDS011;6456;42.680;23.260;2022-07-18T11:45:48;2.47;;;2.20;;
12784;SDS011;6456;42.680;23.260;2022-07-18T11:48:25;3.08;;;1.80;;
12784;SDS011;6456;42.680;23.260;2022-07-18T11:50:53;3.42;;;2.20;;
12784;SDS011;6456;42.680;23.260;2022-07-18T11:53:20;3.10;;;2.20;;
12784;SDS011;6456;42.680;23.260;2022-07-18T11:55:47;2.25;;;1.95;;
12784;SDS011;6456;42.680;23.260;2022-07-18T11:58:15;2.47;;;1.70;;
12784;SDS011;6456;42.680;23.260;2022-07-18T12:00:43;4.45;;;1.60;;
12784;SDS011;6456;42.680;23.260;2022-07-18T12:03:14;3.80;;;2.13;;
12784;SDS011;6456;42.680;23.260;2022-07-18T12:05:43;3.22;;;1.90;;
12784;SDS011;6456;42.680;23.260;2022-07-18T12:08:29;4.50;;;2.00;;
12784;SDS011;6456;42.680;23.260;2022-07-18T12:11:04;1.75;;;1.65;;
12784;SDS011;6456;42.680;23.260;2022-07-18T12:13:42;1.88;;;1.73;;
12784;SDS011;6456;42.680;23.260;2022-07-18T12:16:30;2.50;;;1.88;;
12784;SDS011;6456;42.680;23.260;2022-07-18T12:19:00;3.38;;;1.85;;
12784;SDS011;6456;42.680;23.260;2022-07-18T12:21:43;1.90;;;1.80;;
12784;SDS011;6456;42.680;23.260;2022-07-18T12:27:13;5.63;;;2.20;;
12784;SDS011;6456;42.680;23.260;2022-07-18T12:32:47;6.13;;;2.50;;
12784;SDS011;6456;42.680;23.260;2022-07-18T12:35:18;3.10;;;1.83;;
12784;SDS011;6456;42.680;23.260;2022-07-18T12:37:50;2.22;;;2.03;;
12784;SDS011;6456;42.680;23.260;2022-07-18T12:40:22;2.45;;;1.58;;
12784;SDS011;6456;42.680;23.260;2022-07-18T12:42:56;4.38;;;1.88;;
12784;SDS011;6456;42.680;23.260;2022-07-18T12:45:28;2.58;;;2.05;;
12784;SDS011;6456;42.680;23.260;2022-07-18T12:47:55;2.22;;;1.80;;
12784;SDS011;6456;42.680;23.260;2022-07-18T12:50:23;2.88;;;1.90;;
12784;SDS011;6456;42.680;23.260;2022-07-18T12:52:50;2.78;;;2.05;;
12784;SDS011;6456;42.680;23.260;2022-07-18T12:55:17;2.20;;;1.95;;
12784;SDS011;6456;42.680;23.260;2022-07-18T12:57:44;4.60;;;1.92;;
12784;SDS011;6456;42.680;23.260;2022-07-18T13:00:11;2.90;;;2.30;;
12784;SDS011;6456;42.680;23.260;2022-07-18T13:02:39;4.90;;;2.22;;
12784;SDS011;6456;42.680;23.260;2022-07-18T13:05:08;3.80;;;2.25;;
12784;SDS011;6456;42.680;23.260;2022-07-18T13:07:36;2.45;;;2.25;;
12784;SDS011;6456;42.680;23.260;2022-07-18T13:10:03;4.82;;;2.13;;
12784;SDS011;6456;42.680;23.260;2022-07-18T13:12:31;2.70;;;2.10;;
12784;SDS011;6456;42.680;23.260;2022-07-18T13:14:58;4.63;;;2.35;;
12784;SDS011;6456;42.680;23.260;2022-07-18T13:17:25;7.93;;;2.33;;
12784;SDS011;6456;42.680;23.260;2022-07-18T13:19:52;2.97;;;2.20;;
12784;SDS011;6456;42.680;23.260;2022-07-18T13:22:19;2.38;;;2.17;;
12784;SDS011;6456;42.680;23.260;2022-07-18T13:24:48;5.10;;;2.70;;
12784;SDS011;6456;42.680;23.260;2022-07-18T13:27:15;4.03;;;2.38;;
12784;SDS011;6456;42.680;23.260;2022-07-18T13:29:44;3.15;;;2.33;;
12784;SDS011;6456;42.680;23.260;2022-07-18T13:32:11;2.42;;;2.20;;
12784;SDS011;6456;42.680;23.260;2022-07-18T13:34:38;1.88;;;1.77;;
12784;SDS011;6456;42.680;23.260;2022-07-18T13:37:05;6.78;;;2.35;;
12784;SDS011;6456;42.680;23.260;2022-07-18T13:39:32;3.72;;;2.40;;
12784;SDS011;6456;42.680;23.260;2022-07-18T13:42:00;5.28;;;2.45;;
12784;SDS011;6456;42.680;23.260;2022-07-18T13:44:28;4.20;;;2.22;;
12784;SDS011;6456;42.680;23.260;2022-07-18T13:46:55;6.85;;;3.00;;
12784;SDS011;6456;42.680;23.260;2022-07-18T13:49:21;5.43;;;2.25;;
12784;SDS011;6456;42.680;23.260;2022-07-18T13:51:48;3.35;;;2.35;;
12784;SDS011;6456;42.680;23.260;2022-07-18T13:54:15;4.55;;;2.47;;
12784;SDS011;6456;42.680;23.260;2022-07-18T13:56:43;6.25;;;2.95;;
12784;SDS011;6456;42.680;23.260;2022-07-18T13:59:12;2.97;;;2.30;;
12784;SDS011;6456;42.680;23.260;2022-07-18T14:01:40;5.63;;;3.00;;
12784;SDS011;6456;42.680;23.260;2022-07-18T14:04:08;5.72;;;2.58;;
12784;SDS011;6456;42.680;23.260;2022-07-18T14:06:35;12.80;;;3.67;;
12784;SDS011;6456;42.680;23.260;2022-07-18T14:09:02;3.83;;;2.50;;
12784;SDS011;6456;42.680;23.260;2022-07-18T14:11:29;2.75;;;2.55;;
12784;SDS011;6456;42.680;23.260;2022-07-18T14:13:57;2.63;;;2.05;;
12784;SDS011;6456;42.680;23.260;2022-07-18T14:16:25;9.55;;;3.25;;
12784;SDS011;6456;42.680;23.260;2022-07-18T14:18:52;11.85;;;3.15;;
12784;SDS011;6456;42.680;23.260;2022-07-18T14:21:19;3.05;;;2.33;;
12784;SDS011;6456;42.680;23.260;2022-07-18T14:23:46;4.18;;;2.40;;
12784;SDS011;6456;42.680;23.260;2022-07-18T14:26:14;2.40;;;2.20;;
12784;SDS011;6456;42.680;23.260;2022-07-18T14:28:41;5.63;;;2.38;;
12784;SDS011;6456;42.680;23.260;2022-07-18T14:31:08;2.53;;;2.20;;
12784;SDS011;6456;42.680;23.260;2022-07-18T14:33:37;3.45;;;2.28;;
12784;SDS011;6456;42.680;23.260;2022-07-18T14:36:05;5.03;;;1.98;;
12784;SDS011;6456;42.680;23.260;2022-07-18T14:38:31;5.30;;;2.13;;
12784;SDS011;6456;42.680;23.260;2022-07-18T14:40:58;3.05;;;2.42;;
12784;SDS011;6456;42.680;23.260;2022-07-18T14:43:25;2.70;;;2.03;;
12784;SDS011;6456;42.680;23.260;2022-07-18T14:45:52;3.08;;;2.22;;
12784;SDS011;6456;42.680;23.260;2022-07-18T14:48:19;2.38;;;2.10;;
12784;SDS011;6456;42.680;23.260;2022-07-18T14:50:47;4.35;;;1.90;;
12784;SDS011;6456;42.680;23.260;2022-07-18T14:53:14;1.70;;;1.60;;
12784;SDS011;6456;42.680;23.260;2022-07-18T14:55:41;3.97;;;2.28;;
12784;SDS011;6456;42.680;23.260;2022-07-18T14:58:09;2.55;;;2.25;;
12784;SDS011;6456;42.680;23.260;2022-07-18T15:00:36;3.88;;;2.17;;
12784;SDS011;6456;42.680;23.260;2022-07-18T15:03:03;5.22;;;2.20;;
12784;SDS011;6456;42.680;23.260;2022-07-18T15:05:30;5.30;;;4.43;;
12784;SDS011;6456;42.680;23.260;2022-07-18T15:07:58;3.50;;;2.38;;
12784;SDS011;6456;42.680;23.260;2022-07-18T15:10:25;7.75;;;2.85;;
12784;SDS011;6456;42.680;23.260;2022-07-18T15:12:52;2.40;;;2.20;;
12784;SDS011;6456;42.680;23.260;2022-07-18T15:15:19;2.90;;;2.58;;
12784;SDS011;6456;42.680;23.260;2022-07-18T15:17:46;2.22;;;2.03;;